createdAt,value
2022-10-23T00:02:24.246Z,10.59
2022-10-23T00:05:10.250Z,10.59
2022-10-23T00:07:40.007Z,10.61
2022-10-23T00:10:12.699Z,10.62
2022-10-23T00:12:43.445Z,10.64
2022-10-23T00:15:14.489Z,10.63
2022-10-23T00:17:44.679Z,10.60
2022-10-23T00:20:18.247Z,10.50
2022-10-23T00:22:47.246Z,10.43
2022-10-23T00:25:41.961Z,10.37
2022-10-23T00:28:24.528Z,10.27
2022-10-23T00:31:06.971Z,10.11
2022-10-23T00:33:44.173Z,9.99
2022-10-23T00:36:22.462Z,9.95
2022-10-23T00:39:18.456Z,9.94
2022-10-23T00:41:50.900Z,9.98
2022-10-23T00:44:46.193Z,9.98
2022-10-23T00:47:20.466Z,9.95
2022-10-23T00:49:48.339Z,9.98
2022-10-23T00:52:15.839Z,9.96
2022-10-23T00:55:11.886Z,9.97
2022-10-23T00:57:45.186Z,9.97
2022-10-23T01:00:20.285Z,9.97
2022-10-23T01:02:48.267Z,9.92
2022-10-23T01:05:40.499Z,9.85
2022-10-23T01:08:25.016Z,9.75
2022-10-23T01:11:35.266Z,9.67
2022-10-23T01:14:29.577Z,9.63
2022-10-23T01:17:19.046Z,9.64
2022-10-23T01:20:07.268Z,9.63
2022-10-23T01:23:10.434Z,9.52
2022-10-23T01:26:18.494Z,9.40
2022-10-23T01:29:00.695Z,9.36
2022-10-23T01:31:42.103Z,9.40
2022-10-23T01:34:47.949Z,9.41
2022-10-23T01:38:02.118Z,9.41
2022-10-23T01:40:44.886Z,9.38
2022-10-23T01:43:24.900Z,9.34
2022-10-23T01:46:15.076Z,9.30
2022-10-23T01:49:14.825Z,9.27
2022-10-23T01:52:04.129Z,9.24
2022-10-23T01:54:45.209Z,9.13
2022-10-23T01:57:19.862Z,9.14
2022-10-23T02:00:04.169Z,9.07
2022-10-23T02:02:37.888Z,9.04
2022-10-23T02:05:26.945Z,8.97
2022-10-23T02:08:01.844Z,8.95
2022-10-23T02:10:56.100Z,8.89
2022-10-23T02:14:24.222Z,8.73
2022-10-23T02:17:26.173Z,8.78
2022-10-23T02:20:46.173Z,8.86
2022-10-23T02:23:43.247Z,8.98
2022-10-23T02:26:40.441Z,9.08
2022-10-23T02:29:33.693Z,9.19
2022-10-23T02:32:34.501Z,9.27
2022-10-23T02:35:07.084Z,9.38
2022-10-23T02:38:50.805Z,9.45
2022-10-23T02:42:11.902Z,9.57
2022-10-23T02:45:26.003Z,9.81
2022-10-23T02:48:35.466Z,10.06
2022-10-23T02:51:42.108Z,10.32
2022-10-23T02:54:44.001Z,10.51
2022-10-23T02:57:53.102Z,10.66
2022-10-23T03:00:24.105Z,10.76
2022-10-23T03:02:59.895Z,10.84
2022-10-23T03:05:47.030Z,10.92
2022-10-23T03:08:19.939Z,11.01
2022-10-23T03:10:54.211Z,11.10
2022-10-23T03:13:27.596Z,11.18
2022-10-23T03:16:33.407Z,11.23
2022-10-23T03:19:03.971Z,11.25
2022-10-23T03:21:33.971Z,11.28
2022-10-23T03:24:04.478Z,11.34
2022-10-23T03:27:05.669Z,11.40
2022-10-23T03:29:48.067Z,11.45
2022-10-23T03:32:54.139Z,11.48
2022-10-23T03:35:33.910Z,11.44
2022-10-23T03:38:31.087Z,11.37
2022-10-23T03:41:29.030Z,11.34
2022-10-23T03:44:31.329Z,11.32
2022-10-23T03:47:12.273Z,11.33
2022-10-23T03:49:57.366Z,11.31
2022-10-23T03:53:05.490Z,11.28
2022-10-23T03:55:35.935Z,11.21
2022-10-23T03:58:12.729Z,11.17
2022-10-23T04:00:49.066Z,11.16
2022-10-23T04:03:18.576Z,11.14
2022-10-23T04:05:52.077Z,11.08
2022-10-23T04:08:24.415Z,11.05
2022-10-23T04:11:02.315Z,11.00
2022-10-23T04:13:39.790Z,10.95
2022-10-23T04:16:08.846Z,10.89
2022-10-23T04:19:10.918Z,10.82
2022-10-23T04:21:44.569Z,10.83
2022-10-23T04:24:47.469Z,10.84
2022-10-23T04:27:24.097Z,10.82
2022-10-23T04:30:04.323Z,10.76
2022-10-23T04:33:02.655Z,10.67
2022-10-23T04:35:42.285Z,10.62
2022-10-23T04:38:37.710Z,10.60
2022-10-23T04:41:06.247Z,10.59
2022-10-23T04:43:37.959Z,10.54
2022-10-23T04:46:14.936Z,10.52
2022-10-23T04:48:46.510Z,10.42
2022-10-23T04:51:14.714Z,10.39
2022-10-23T04:54:02.272Z,10.43
2022-10-23T04:56:48.378Z,10.42
2022-10-23T04:59:44.709Z,10.39
2022-10-23T05:02:12.175Z,10.35
2022-10-23T05:04:39.555Z,10.32
2022-10-23T05:07:06.716Z,10.24
2022-10-23T05:09:34.115Z,10.22
2022-10-23T05:12:01.435Z,10.22
2022-10-23T05:14:28.624Z,10.23
2022-10-23T05:17:02.236Z,10.19
2022-10-23T05:19:41.055Z,10.10
2022-10-23T05:22:10.197Z,10.04
2022-10-23T05:24:37.716Z,9.98
2022-10-23T05:27:05.095Z,9.95
2022-10-23T05:29:32.396Z,9.95
2022-10-23T05:32:06.295Z,9.95
2022-10-23T05:34:36.275Z,9.95
2022-10-23T05:37:08.497Z,9.93
2022-10-23T05:39:35.975Z,10.01
2022-10-23T05:42:03.278Z,10.07
2022-10-23T05:44:30.717Z,10.09
2022-10-23T05:46:58.236Z,10.11
2022-10-23T05:49:26.143Z,10.15
2022-10-23T05:51:53.516Z,10.09
2022-10-23T05:54:20.715Z,10.05
2022-10-23T05:56:47.936Z,10.09
2022-10-23T05:59:19.066Z,10.12
2022-10-23T06:01:49.427Z,10.14
2022-10-23T06:04:16.798Z,10.19
2022-10-23T06:06:46.595Z,10.26
2022-10-23T06:09:15.195Z,10.35
2022-10-23T06:11:42.994Z,10.40
2022-10-23T06:14:10.697Z,10.42
2022-10-23T06:16:37.935Z,10.42
2022-10-23T06:19:05.317Z,10.41
2022-10-23T06:21:37.196Z,10.43
2022-10-23T06:24:06.959Z,10.44
2022-10-23T06:26:34.423Z,10.42
2022-10-23T06:29:01.798Z,10.41
2022-10-23T06:31:29.297Z,10.47
2022-10-23T06:33:58.876Z,10.63
2022-10-23T06:36:26.996Z,10.76
2022-10-23T06:38:55.945Z,10.86
2022-10-23T06:41:23.475Z,10.95
2022-10-23T06:43:51.635Z,11.05
2022-10-23T06:46:19.782Z,11.11
2022-10-23T06:48:47.176Z,11.15
2022-10-23T06:51:17.275Z,11.15
2022-10-23T06:53:45.756Z,11.23
2022-10-23T06:56:13.576Z,11.35
2022-10-23T06:58:41.495Z,11.45
2022-10-23T07:01:13.131Z,11.55
2022-10-23T07:03:40.551Z,11.64
2022-10-23T07:06:10.877Z,11.76
2022-10-23T07:08:39.077Z,11.88
2022-10-23T07:11:09.258Z,11.95
2022-10-23T07:13:38.296Z,12.04
2022-10-23T07:16:15.427Z,12.10
2022-10-23T07:18:44.415Z,12.21
2022-10-23T07:21:12.076Z,12.33
2022-10-23T07:23:39.383Z,12.42
2022-10-23T07:26:16.701Z,12.52
2022-10-23T07:28:47.175Z,12.63
2022-10-23T07:31:14.670Z,12.70
2022-10-23T07:33:41.935Z,12.79
2022-10-23T07:36:10.215Z,12.84
2022-10-23T07:38:37.507Z,12.90
2022-10-23T07:41:07.864Z,12.99
2022-10-23T07:43:38.032Z,13.12
2022-10-23T07:46:05.637Z,13.19
2022-10-23T07:48:32.979Z,13.23
2022-10-23T07:51:07.918Z,13.34
2022-10-23T07:53:35.596Z,13.47
2022-10-23T07:56:13.053Z,13.54
2022-10-23T07:58:40.255Z,13.61
2022-10-23T08:01:19.778Z,13.66
2022-10-23T08:03:47.056Z,13.76
2022-10-23T08:06:14.556Z,13.81
2022-10-23T08:08:41.783Z,13.90
2022-10-23T08:11:12.417Z,13.97
2022-10-23T08:13:39.724Z,14.06
2022-10-23T08:16:07.445Z,14.11
2022-10-23T08:18:34.686Z,14.17
2022-10-23T08:21:04.544Z,14.23
2022-10-23T08:23:31.837Z,14.28
2022-10-23T08:26:02.657Z,14.34
2022-10-23T08:28:29.815Z,14.42
2022-10-23T08:30:57.717Z,14.47
2022-10-23T08:33:25.636Z,14.48
2022-10-23T08:35:52.779Z,14.51
2022-10-23T08:38:19.885Z,14.53
2022-10-23T08:40:48.886Z,14.59
2022-10-23T08:43:41.304Z,14.61
2022-10-23T08:46:17.216Z,14.66
2022-10-23T08:48:53.496Z,14.77
2022-10-23T08:51:51.495Z,14.88
2022-10-23T08:54:40.258Z,14.98
2022-10-23T08:57:17.755Z,15.09
2022-10-23T09:00:12.923Z,15.20
2022-10-23T09:02:51.037Z,15.31
2022-10-23T09:05:31.354Z,15.37
2022-10-23T09:08:30.795Z,15.50
2022-10-23T09:11:22.635Z,15.63
2022-10-23T09:13:55.295Z,15.75
2022-10-23T09:16:43.944Z,15.86
2022-10-23T09:19:20.356Z,15.93
2022-10-23T09:21:49.962Z,16.04
2022-10-23T09:24:24.475Z,16.17
2022-10-23T09:26:54.305Z,16.28
2022-10-23T09:29:38.115Z,16.33
2022-10-23T09:32:07.116Z,16.32
2022-10-23T09:34:35.162Z,16.37
2022-10-23T09:37:21.438Z,16.42
2022-10-23T09:39:49.455Z,16.47
2022-10-23T09:42:25.815Z,16.44
2022-10-23T09:44:55.327Z,16.39
2022-10-23T09:47:25.644Z,16.38
2022-10-23T09:49:56.635Z,16.39
2022-10-23T09:52:37.195Z,16.45
2022-10-23T09:55:23.981Z,16.59
2022-10-23T09:57:53.636Z,16.80
2022-10-23T10:00:25.461Z,16.89
2022-10-23T10:03:05.455Z,16.89
2022-10-23T10:05:39.163Z,16.95
2022-10-23T10:08:31.284Z,17.08
2022-10-23T10:11:27.581Z,17.26
2022-10-23T10:14:15.694Z,17.38
2022-10-23T10:17:10.776Z,17.35
2022-10-23T10:20:10.167Z,17.26
2022-10-23T10:22:43.240Z,17.30
2022-10-23T10:25:34.615Z,17.30
2022-10-23T10:28:23.475Z,17.23
2022-10-23T10:31:25.740Z,17.16
2022-10-23T10:34:28.491Z,17.12
2022-10-23T10:37:05.835Z,17.08
2022-10-23T10:40:27.356Z,17.06
2022-10-23T10:43:33.795Z,17.08
2022-10-23T10:46:17.857Z,17.15
2022-10-23T10:49:07.223Z,17.28
2022-10-23T10:52:00.435Z,17.38
2022-10-23T10:54:42.571Z,17.48
2022-10-23T10:57:29.075Z,17.57
2022-10-23T11:00:03.234Z,17.62
2022-10-23T11:02:57.195Z,17.67
2022-10-23T11:05:42.817Z,17.69
2022-10-23T11:08:56.077Z,17.59
2022-10-23T11:11:35.775Z,17.48
2022-10-23T11:14:04.037Z,17.37
2022-10-23T11:16:39.164Z,17.29
2022-10-23T11:19:19.336Z,17.30
2022-10-23T11:22:28.057Z,17.36
2022-10-23T11:25:35.876Z,17.47
2022-10-23T11:29:31.003Z,17.57
2022-10-23T11:32:26.071Z,17.61
2022-10-23T11:35:20.455Z,17.67
2022-10-23T11:38:15.124Z,17.69
2022-10-23T11:43:48.138Z,17.75
2022-10-23T11:46:38.055Z,17.79
2022-10-23T11:49:20.020Z,17.78
2022-10-23T11:51:47.225Z,17.71
2022-10-23T11:54:17.375Z,17.66
2022-10-23T11:57:10.415Z,17.69
2022-10-23T11:59:55.576Z,17.70
2022-10-23T12:02:43.554Z,17.67
2022-10-23T12:05:38.137Z,17.66
2022-10-23T12:08:22.656Z,17.67
2022-10-23T12:10:52.657Z,17.63
2022-10-23T12:13:46.089Z,17.63
2022-10-23T12:16:14.100Z,17.65
2022-10-23T12:18:55.375Z,17.64
2022-10-23T12:21:28.157Z,17.62
2022-10-23T12:24:57.363Z,17.60
2022-10-23T12:27:35.952Z,17.61
2022-10-23T12:30:30.375Z,17.62
2022-10-23T12:33:34.915Z,17.65
2022-10-23T12:36:22.363Z,17.69
2022-10-23T12:38:50.315Z,17.70
2022-10-23T12:41:30.585Z,17.76
2022-10-23T12:44:04.055Z,17.80
2022-10-23T12:46:50.924Z,17.82
2022-10-23T12:49:25.181Z,17.86
2022-10-23T12:52:02.611Z,17.87
2022-10-23T12:54:39.456Z,17.83
2022-10-23T12:57:29.860Z,17.85
2022-10-23T13:00:02.654Z,17.92
2022-10-23T13:02:32.727Z,18.01
2022-10-23T13:05:05.077Z,18.09
2022-10-23T13:07:40.521Z,18.09
2022-10-23T13:10:16.015Z,18.11
2022-10-23T13:12:52.137Z,18.12
2022-10-23T13:15:22.182Z,18.15
2022-10-23T13:17:58.497Z,18.20
2022-10-23T13:20:34.839Z,18.22
2022-10-23T13:23:26.277Z,18.23
2022-10-23T13:26:26.017Z,18.23
2022-10-23T13:28:53.836Z,18.25
2022-10-23T13:31:21.097Z,18.24
2022-10-23T13:34:13.885Z,18.24
2022-10-23T13:36:53.666Z,18.25
2022-10-23T13:39:31.055Z,18.31
2022-10-23T13:42:14.696Z,18.35
2022-10-23T13:44:42.540Z,18.40
2022-10-23T13:47:14.195Z,18.38
2022-10-23T13:49:41.506Z,18.32
2022-10-23T13:52:13.924Z,18.29
2022-10-23T13:54:43.237Z,18.28
2022-10-23T13:57:15.568Z,18.24
2022-10-23T13:59:43.442Z,18.16
2022-10-23T14:02:22.520Z,18.07
2022-10-23T14:04:50.795Z,18.05
2022-10-23T14:07:18.599Z,18.03
2022-10-23T14:09:46.349Z,18.04
2022-10-23T14:12:13.839Z,18.06
2022-10-23T14:14:41.278Z,18.06
2022-10-23T14:17:09.144Z,18.04
2022-10-23T14:22:09.626Z,17.98
2022-10-23T14:24:40.127Z,17.96
2022-10-23T14:27:07.652Z,17.93
2022-10-23T14:29:35.435Z,17.90
2022-10-23T14:32:03.175Z,17.86
2022-10-23T14:34:31.115Z,17.82
2022-10-23T14:37:08.726Z,17.78
2022-10-23T14:39:37.174Z,17.76
2022-10-23T14:42:05.355Z,17.73
2022-10-23T14:44:33.116Z,17.69
2022-10-23T14:47:01.156Z,17.63
2022-10-23T14:49:29.395Z,17.54
2022-10-23T14:51:57.475Z,17.46
2022-10-23T14:54:25.155Z,17.37
2022-10-23T14:56:54.348Z,17.30
2022-10-23T14:59:23.040Z,17.19
2022-10-23T15:01:50.855Z,17.03
2022-10-23T15:04:18.259Z,16.91
2022-10-23T15:06:46.895Z,16.82
2022-10-23T15:09:15.235Z,16.72
2022-10-23T15:11:42.636Z,16.60
2022-10-23T15:14:10.243Z,16.47
2022-10-23T15:16:40.936Z,16.36
2022-10-23T15:19:17.395Z,16.24
2022-10-23T15:21:48.663Z,16.13
2022-10-23T15:24:17.506Z,15.96
2022-10-23T15:26:45.315Z,15.80
2022-10-23T15:29:14.374Z,15.67
2022-10-23T15:31:54.456Z,15.52
2022-10-23T15:34:26.422Z,15.41
2022-10-23T15:36:56.562Z,15.32
2022-10-23T15:39:33.438Z,15.22
2022-10-23T15:42:03.499Z,15.12
2022-10-23T15:44:32.713Z,15.06
2022-10-23T15:47:01.035Z,14.93
2022-10-23T15:49:29.277Z,14.76
2022-10-23T15:51:57.644Z,14.69
2022-10-23T15:54:42.817Z,14.64
2022-10-23T15:57:10.689Z,14.58
2022-10-23T15:59:38.218Z,14.49
2022-10-23T16:02:05.782Z,14.40
2022-10-23T16:04:33.932Z,14.31
2022-10-23T16:07:01.235Z,14.24
2022-10-23T16:09:29.817Z,14.21
2022-10-23T16:11:57.023Z,14.20
2022-10-23T16:14:24.386Z,14.14
2022-10-23T16:16:51.626Z,14.08
2022-10-23T16:19:19.079Z,14.00
2022-10-23T16:21:46.322Z,13.90
2022-10-23T16:24:13.942Z,13.82
2022-10-23T16:26:41.201Z,13.82
2022-10-23T16:29:09.758Z,13.79
2022-10-23T16:31:37.499Z,13.72
2022-10-23T16:34:05.970Z,13.62
2022-10-23T16:36:34.639Z,13.54
2022-10-23T16:39:03.282Z,13.47
2022-10-23T16:41:30.775Z,13.39
2022-10-23T16:43:58.516Z,13.35
2022-10-23T16:46:25.837Z,13.32
2022-10-23T16:48:53.738Z,13.31
2022-10-23T16:51:25.158Z,13.26
2022-10-23T16:53:57.136Z,13.23
2022-10-23T16:56:29.350Z,13.21
2022-10-23T17:01:30.799Z,13.12
2022-10-23T17:03:58.756Z,13.05
2022-10-23T17:06:32.376Z,12.99
2022-10-23T17:09:01.537Z,12.97
2022-10-23T17:11:36.256Z,12.94
2022-10-23T17:14:17.937Z,12.88
2022-10-23T17:16:51.078Z,12.81
2022-10-23T17:22:12.267Z,12.70
2022-10-23T17:24:41.170Z,12.67
2022-10-23T17:27:09.295Z,12.63
2022-10-23T17:29:36.637Z,12.58
2022-10-23T17:32:04.398Z,12.53
2022-10-23T17:34:31.696Z,12.47
2022-10-23T17:36:58.955Z,12.40
2022-10-23T17:39:29.400Z,12.39
2022-10-23T17:41:57.529Z,12.41
2022-10-23T17:44:25.079Z,12.45
2022-10-23T17:46:54.796Z,12.47
2022-10-23T17:49:24.701Z,12.53
2022-10-23T17:51:55.695Z,12.56
2022-10-23T17:54:25.842Z,12.54
2022-10-23T17:56:54.155Z,12.52
2022-10-23T17:59:22.275Z,12.55
2022-10-23T18:01:50.469Z,12.57
2022-10-23T18:04:21.277Z,12.55
2022-10-23T18:06:52.358Z,12.49
2022-10-23T18:09:21.996Z,12.48
2022-10-23T18:11:50.435Z,12.47
2022-10-23T18:14:21.243Z,12.49
2022-10-23T18:16:49.839Z,12.53
2022-10-23T18:19:18.925Z,12.54
2022-10-23T18:21:48.055Z,12.56
2022-10-23T18:24:16.136Z,12.57
2022-10-23T18:26:47.569Z,12.57
2022-10-23T18:29:17.752Z,12.56
2022-10-23T18:31:48.202Z,12.58
2022-10-23T18:34:22.795Z,12.61
2022-10-23T18:36:53.116Z,12.62
2022-10-23T18:39:24.176Z,12.63
2022-10-23T18:41:56.683Z,12.60
2022-10-23T18:44:28.469Z,12.56
2022-10-23T18:46:59.095Z,12.56
2022-10-23T18:49:27.618Z,12.57
2022-10-23T18:51:55.602Z,12.56
2022-10-23T18:54:23.064Z,12.55
2022-10-23T18:56:50.575Z,12.53
2022-10-23T18:59:20.662Z,12.54
2022-10-23T19:01:49.716Z,12.57
2022-10-23T19:04:18.108Z,12.63
2022-10-23T19:06:47.919Z,12.71
2022-10-23T19:09:15.995Z,12.75
2022-10-23T19:11:45.876Z,12.79
2022-10-23T19:14:13.751Z,12.80
2022-10-23T19:17:05.315Z,12.83
2022-10-23T19:19:45.571Z,12.86
2022-10-23T19:22:15.935Z,12.88
2022-10-23T19:24:54.077Z,12.89
2022-10-23T19:27:21.817Z,12.90
2022-10-23T19:29:52.915Z,12.89
2022-10-23T19:32:22.235Z,12.84
2022-10-23T19:34:50.243Z,12.80
2022-10-23T19:37:18.233Z,12.79
2022-10-23T19:39:45.996Z,12.76
2022-10-23T19:42:13.459Z,12.77
2022-10-23T19:44:40.960Z,12.76
2022-10-23T19:47:08.975Z,12.76
2022-10-23T19:49:36.949Z,12.74
2022-10-23T19:52:04.851Z,12.70
2022-10-23T19:54:32.516Z,12.66
2022-10-23T19:57:02.075Z,12.65
2022-10-23T19:59:29.635Z,12.65
2022-10-23T20:01:57.347Z,12.65
2022-10-23T20:04:24.991Z,12.64
2022-10-23T20:06:52.758Z,12.61
2022-10-23T20:09:20.976Z,12.57
2022-10-23T20:11:48.955Z,12.57
2022-10-23T20:14:18.855Z,12.57
2022-10-23T20:16:50.171Z,12.58
2022-10-23T20:19:21.328Z,12.58
2022-10-23T20:21:51.297Z,12.58
2022-10-23T20:24:21.265Z,12.58
2022-10-23T20:26:54.496Z,12.61
2022-10-23T20:29:24.760Z,12.65
2022-10-23T20:31:52.576Z,12.63
2022-10-23T20:34:20.154Z,12.64
2022-10-23T20:36:49.709Z,12.62
2022-10-23T20:39:25.439Z,12.61
2022-10-23T20:41:57.178Z,12.61
2022-10-23T20:44:24.748Z,12.64
2022-10-23T20:46:52.909Z,12.68
2022-10-23T20:49:21.441Z,12.70
2022-10-23T20:51:55.644Z,12.69
2022-10-23T20:54:28.743Z,12.68
2022-10-23T20:56:57.023Z,12.67
2022-10-23T20:59:25.217Z,12.67
2022-10-23T21:01:55.983Z,12.68
2022-10-23T21:04:28.026Z,12.70
2022-10-23T21:07:09.306Z,12.69
2022-10-23T21:09:40.637Z,12.69
2022-10-23T21:12:09.683Z,12.69
2022-10-23T21:14:38.825Z,12.70
2022-10-23T21:17:08.969Z,12.70
2022-10-23T21:19:40.382Z,12.71
2022-10-23T21:22:08.195Z,12.68
2022-10-23T21:24:35.476Z,12.64
2022-10-23T21:27:02.696Z,12.65
2022-10-23T21:29:29.997Z,12.67
2022-10-23T21:32:01.191Z,12.70
2022-10-23T21:34:29.417Z,12.73
2022-10-23T21:37:13.823Z,12.73
2022-10-23T21:39:45.979Z,12.71
2022-10-23T21:42:14.743Z,12.68
2022-10-23T21:44:43.117Z,12.67
2022-10-23T21:47:10.519Z,12.66
2022-10-23T21:49:37.861Z,12.63
2022-10-23T21:52:05.285Z,12.60
2022-10-23T21:54:32.835Z,12.56
2022-10-23T21:57:00.129Z,12.52
2022-10-23T22:00:19.862Z,12.47
2022-10-23T22:06:30.947Z,12.34
2022-10-23T22:09:18.078Z,12.33
2022-10-23T22:12:16.465Z,12.29
2022-10-23T22:14:55.826Z,12.23
2022-10-23T22:17:56.261Z,12.18
2022-10-23T22:20:32.908Z,12.18
2022-10-23T22:23:30.737Z,12.18
2022-10-23T22:26:34.023Z,12.18
2022-10-23T22:29:31.625Z,12.17
2022-10-23T22:32:09.732Z,12.15
2022-10-23T22:35:06.914Z,12.15
2022-10-23T22:37:47.049Z,12.17
2022-10-23T22:40:46.626Z,12.19
2022-10-23T22:43:25.262Z,12.19
2022-10-23T22:46:23.748Z,12.20
2022-10-23T22:52:02.468Z,12.19
2022-10-23T22:54:40.522Z,12.21
2022-10-23T22:57:40.031Z,12.26
2022-10-23T23:00:17.178Z,12.27
2022-10-23T23:03:15.157Z,12.26
2022-10-23T23:05:53.013Z,12.26
2022-10-23T23:08:52.162Z,12.27
2022-10-23T23:11:45.652Z,12.29
2022-10-23T23:14:28.453Z,12.29
2022-10-23T23:17:09.766Z,12.30
2022-10-23T23:20:07.748Z,12.31
2022-10-23T23:22:46.773Z,12.30
2022-10-23T23:25:47.926Z,12.32
2022-10-23T23:28:28.816Z,12.35
2022-10-23T23:31:26.931Z,12.37
2022-10-23T23:34:23.802Z,12.38
2022-10-23T23:37:03.120Z,12.41
2022-10-23T23:40:03.175Z,12.38
2022-10-23T23:42:40.119Z,12.40
2022-10-23T23:45:15.241Z,12.42
2022-10-23T23:48:00.553Z,12.45
2022-10-23T23:51:00.827Z,12.47
2022-10-23T23:53:40.321Z,12.52
2022-10-23T23:56:38.172Z,12.51
2022-10-23T23:59:19.350Z,12.50
